sensor_id;sensor_type;location;lat;lon;timestamp;P1;durP1;ratioP1;P2;durP2;ratioP2
71513;SDS011;59335;46.652;21.272;2023-12-20T00:02:51;30.13;;;20.50;;
71513;SDS011;59335;46.652;21.272;2023-12-20T00:05:53;31.77;;;22.17;;
71513;SDS011;59335;46.652;21.272;2023-12-20T00:08:56;30.03;;;20.57;;
71513;SDS011;59335;46.652;21.272;2023-12-20T00:12:00;32.00;;;21.48;;
71513;SDS011;59335;46.652;21.272;2023-12-20T00:15:03;31.30;;;21.58;;
71513;SDS011;59335;46.652;21.272;2023-12-20T00:18:07;30.77;;;20.77;;
71513;SDS011;59335;46.652;21.272;2023-12-20T00:21:10;34.05;;;21.85;;
71513;SDS011;59335;46.652;21.272;2023-12-20T00:24:13;30.27;;;20.53;;
71513;SDS011;59335;46.652;21.272;2023-12-20T00:27:15;28.38;;;20.15;;
71513;SDS011;59335;46.652;21.272;2023-12-20T00:30:18;30.38;;;21.10;;
71513;SDS011;59335;46.652;21.272;2023-12-20T00:33:21;29.80;;;19.83;;
71513;SDS011;59335;46.652;21.272;2023-12-20T00:36:24;30.60;;;19.80;;
71513;SDS011;59335;46.652;21.272;2023-12-20T00:39:27;30.27;;;19.83;;
71513;SDS011;59335;46.652;21.272;2023-12-20T00:42:30;29.33;;;20.17;;
71513;SDS011;59335;46.652;21.272;2023-12-20T00:45:33;30.70;;;20.52;;
71513;SDS011;59335;46.652;21.272;2023-12-20T00:48:35;28.90;;;20.20;;
71513;SDS011;59335;46.652;21.272;2023-12-20T00:51:38;29.27;;;19.58;;
71513;SDS011;59335;46.652;21.272;2023-12-20T00:54:41;28.70;;;19.47;;
71513;SDS011;59335;46.652;21.272;2023-12-20T00:57:44;28.65;;;18.30;;
71513;SDS011;59335;46.652;21.272;2023-12-20T01:00:47;27.70;;;19.42;;
71513;SDS011;59335;46.652;21.272;2023-12-20T01:03:51;29.27;;;18.52;;
71513;SDS011;59335;46.652;21.272;2023-12-20T01:06:54;30.00;;;19.10;;
71513;SDS011;59335;46.652;21.272;2023-12-20T01:09:57;26.60;;;18.00;;
71513;SDS011;59335;46.652;21.272;2023-12-20T01:13:00;28.35;;;18.63;;
71513;SDS011;59335;46.652;21.272;2023-12-20T01:16:03;27.80;;;19.35;;
71513;SDS011;59335;46.652;21.272;2023-12-20T01:19:07;26.70;;;18.42;;
71513;SDS011;59335;46.652;21.272;2023-12-20T01:22:10;26.60;;;18.95;;
71513;SDS011;59335;46.652;21.272;2023-12-20T01:25:13;28.67;;;18.33;;
71513;SDS011;59335;46.652;21.272;2023-12-20T01:28:15;24.65;;;18.55;;
71513;SDS011;59335;46.652;21.272;2023-12-20T01:31:18;27.77;;;18.45;;
71513;SDS011;59335;46.652;21.272;2023-12-20T01:34:21;24.88;;;17.65;;
71513;SDS011;59335;46.652;21.272;2023-12-20T01:37:24;25.80;;;17.75;;
71513;SDS011;59335;46.652;21.272;2023-12-20T01:40:29;25.30;;;18.60;;
71513;SDS011;59335;46.652;21.272;2023-12-20T01:43:32;26.25;;;18.40;;
71513;SDS011;59335;46.652;21.272;2023-12-20T01:46:49;27.40;;;18.70;;
71513;SDS011;59335;46.652;21.272;2023-12-20T01:49:51;25.52;;;17.65;;
71513;SDS011;59335;46.652;21.272;2023-12-20T01:53:04;23.65;;;16.92;;
71513;SDS011;59335;46.652;21.272;2023-12-20T01:56:09;23.77;;;17.00;;
71513;SDS011;59335;46.652;21.272;2023-12-20T01:59:13;25.67;;;17.75;;
71513;SDS011;59335;46.652;21.272;2023-12-20T02:02:16;24.77;;;17.05;;
71513;SDS011;59335;46.652;21.272;2023-12-20T02:05:19;25.65;;;16.73;;
71513;SDS011;59335;46.652;21.272;2023-12-20T02:08:23;24.13;;;17.00;;
71513;SDS011;59335;46.652;21.272;2023-12-20T02:11:26;26.00;;;17.50;;
71513;SDS011;59335;46.652;21.272;2023-12-20T02:14:29;24.15;;;16.95;;
71513;SDS011;59335;46.652;21.272;2023-12-20T02:17:32;25.10;;;17.70;;
71513;SDS011;59335;46.652;21.272;2023-12-20T02:20:36;22.48;;;15.82;;
71513;SDS011;59335;46.652;21.272;2023-12-20T02:23:38;22.33;;;16.63;;
71513;SDS011;59335;46.652;21.272;2023-12-20T02:26:41;23.77;;;17.50;;
71513;SDS011;59335;46.652;21.272;2023-12-20T02:29:48;24.98;;;17.65;;
71513;SDS011;59335;46.652;21.272;2023-12-20T02:32:52;23.05;;;16.27;;
71513;SDS011;59335;46.652;21.272;2023-12-20T02:35:56;23.92;;;16.77;;
71513;SDS011;59335;46.652;21.272;2023-12-20T02:38:59;23.30;;;16.42;;
71513;SDS011;59335;46.652;21.272;2023-12-20T02:42:03;26.43;;;17.03;;
71513;SDS011;59335;46.652;21.272;2023-12-20T02:45:06;23.73;;;17.33;;
71513;SDS011;59335;46.652;21.272;2023-12-20T02:48:09;25.77;;;17.55;;
71513;SDS011;59335;46.652;21.272;2023-12-20T02:51:13;23.58;;;16.63;;
71513;SDS011;59335;46.652;21.272;2023-12-20T02:54:15;24.73;;;16.85;;
71513;SDS011;59335;46.652;21.272;2023-12-20T02:57:18;22.50;;;16.20;;
71513;SDS011;59335;46.652;21.272;2023-12-20T03:00:21;21.77;;;16.25;;
71513;SDS011;59335;46.652;21.272;2023-12-20T03:03:24;23.92;;;16.65;;
71513;SDS011;59335;46.652;21.272;2023-12-20T03:06:27;22.38;;;15.32;;
71513;SDS011;59335;46.652;21.272;2023-12-20T03:09:30;21.80;;;16.42;;
71513;SDS011;59335;46.652;21.272;2023-12-20T03:12:53;22.50;;;15.50;;
71513;SDS011;59335;46.652;21.272;2023-12-20T03:15:56;22.15;;;16.17;;
71513;SDS011;59335;46.652;21.272;2023-12-20T03:18:59;23.98;;;16.35;;
71513;SDS011;59335;46.652;21.272;2023-12-20T03:22:02;22.35;;;15.35;;
71513;SDS011;59335;46.652;21.272;2023-12-20T03:25:05;21.67;;;16.05;;
71513;SDS011;59335;46.652;21.272;2023-12-20T03:28:07;23.33;;;16.07;;
71513;SDS011;59335;46.652;21.272;2023-12-20T03:31:10;21.98;;;16.33;;
71513;SDS011;59335;46.652;21.272;2023-12-20T03:34:14;22.15;;;16.25;;
71513;SDS011;59335;46.652;21.272;2023-12-20T03:37:17;20.90;;;15.27;;
71513;SDS011;59335;46.652;21.272;2023-12-20T03:40:19;23.25;;;17.75;;
71513;SDS011;59335;46.652;21.272;2023-12-20T03:43:23;20.77;;;15.03;;
71513;SDS011;59335;46.652;21.272;2023-12-20T03:46:26;20.77;;;14.90;;
71513;SDS011;59335;46.652;21.272;2023-12-20T03:49:29;20.88;;;14.85;;
71513;SDS011;59335;46.652;21.272;2023-12-20T03:52:32;20.83;;;15.32;;
71513;SDS011;59335;46.652;21.272;2023-12-20T03:55:34;20.42;;;15.52;;
71513;SDS011;59335;46.652;21.272;2023-12-20T03:58:37;19.47;;;14.27;;
71513;SDS011;59335;46.652;21.272;2023-12-20T04:01:44;21.10;;;14.50;;
71513;SDS011;59335;46.652;21.272;2023-12-20T04:04:47;20.27;;;14.50;;
71513;SDS011;59335;46.652;21.272;2023-12-20T04:07:50;21.50;;;14.70;;
71513;SDS011;59335;46.652;21.272;2023-12-20T04:10:53;20.88;;;14.60;;
71513;SDS011;59335;46.652;21.272;2023-12-20T04:13:56;20.50;;;14.60;;
71513;SDS011;59335;46.652;21.272;2023-12-20T04:16:59;18.85;;;13.80;;
71513;SDS011;59335;46.652;21.272;2023-12-20T04:20:01;20.48;;;14.52;;
71513;SDS011;59335;46.652;21.272;2023-12-20T04:23:07;18.90;;;14.45;;
71513;SDS011;59335;46.652;21.272;2023-12-20T04:26:10;21.02;;;14.13;;
71513;SDS011;59335;46.652;21.272;2023-12-20T04:29:13;19.80;;;13.90;;
71513;SDS011;59335;46.652;21.272;2023-12-20T04:32:16;21.98;;;14.32;;
71513;SDS011;59335;46.652;21.272;2023-12-20T04:35:19;20.17;;;14.40;;
71513;SDS011;59335;46.652;21.272;2023-12-20T04:38:21;19.10;;;13.82;;
71513;SDS011;59335;46.652;21.272;2023-12-20T04:41:24;18.13;;;13.48;;
71513;SDS011;59335;46.652;21.272;2023-12-20T04:44:27;18.90;;;13.70;;
71513;SDS011;59335;46.652;21.272;2023-12-20T04:47:30;21.23;;;13.98;;
71513;SDS011;59335;46.652;21.272;2023-12-20T04:50:33;18.60;;;13.73;;
71513;SDS011;59335;46.652;21.272;2023-12-20T04:53:36;18.52;;;13.48;;
71513;SDS011;59335;46.652;21.272;2023-12-20T04:56:39;18.55;;;13.80;;
71513;SDS011;59335;46.652;21.272;2023-12-20T04:59:41;19.30;;;13.43;;
71513;SDS011;59335;46.652;21.272;2023-12-20T05:02:44;19.92;;;14.50;;
71513;SDS011;59335;46.652;21.272;2023-12-20T05:05:47;17.65;;;13.02;;
71513;SDS011;59335;46.652;21.272;2023-12-20T05:08:50;18.33;;;13.30;;
71513;SDS011;59335;46.652;21.272;2023-12-20T05:11:53;19.88;;;13.75;;
71513;SDS011;59335;46.652;21.272;2023-12-20T05:14:56;21.07;;;14.10;;
71513;SDS011;59335;46.652;21.272;2023-12-20T05:17:58;20.42;;;14.48;;
71513;SDS011;59335;46.652;21.272;2023-12-20T05:21:01;19.42;;;13.80;;
71513;SDS011;59335;46.652;21.272;2023-12-20T05:24:05;17.83;;;13.30;;
71513;SDS011;59335;46.652;21.272;2023-12-20T05:27:08;18.58;;;13.40;;
71513;SDS011;59335;46.652;21.272;2023-12-20T05:30:10;18.73;;;13.53;;
71513;SDS011;59335;46.652;21.272;2023-12-20T05:33:15;18.83;;;13.75;;
71513;SDS011;59335;46.652;21.272;2023-12-20T05:36:18;18.42;;;13.95;;
71513;SDS011;59335;46.652;21.272;2023-12-20T05:39:21;18.63;;;13.38;;
71513;SDS011;59335;46.652;21.272;2023-12-20T05:42:23;19.60;;;13.30;;
71513;SDS011;59335;46.652;21.272;2023-12-20T05:45:26;16.87;;;13.13;;
71513;SDS011;59335;46.652;21.272;2023-12-20T05:48:29;17.45;;;12.88;;
71513;SDS011;59335;46.652;21.272;2023-12-20T05:51:32;18.90;;;14.13;;
71513;SDS011;59335;46.652;21.272;2023-12-20T05:54:35;19.20;;;12.93;;
71513;SDS011;59335;46.652;21.272;2023-12-20T05:57:37;18.88;;;13.00;;
71513;SDS011;59335;46.652;21.272;2023-12-20T06:00:40;17.93;;;13.00;;
71513;SDS011;59335;46.652;21.272;2023-12-20T06:03:46;18.70;;;13.00;;
71513;SDS011;59335;46.652;21.272;2023-12-20T06:06:49;17.63;;;13.75;;
71513;SDS011;59335;46.652;21.272;2023-12-20T06:09:52;18.20;;;13.05;;
71513;SDS011;59335;46.652;21.272;2023-12-20T06:12:54;20.05;;;13.68;;
71513;SDS011;59335;46.652;21.272;2023-12-20T06:15:58;17.87;;;12.50;;
71513;SDS011;59335;46.652;21.272;2023-12-20T06:19:01;18.08;;;12.50;;
71513;SDS011;59335;46.652;21.272;2023-12-20T06:22:04;20.08;;;13.23;;
71513;SDS011;59335;46.652;21.272;2023-12-20T06:25:08;17.38;;;12.70;;
71513;SDS011;59335;46.652;21.272;2023-12-20T06:28:11;18.98;;;13.05;;
71513;SDS011;59335;46.652;21.272;2023-12-20T06:31:16;18.57;;;12.60;;
71513;SDS011;59335;46.652;21.272;2023-12-20T06:34:19;18.80;;;13.23;;
71513;SDS011;59335;46.652;21.272;2023-12-20T06:37:22;17.40;;;12.85;;
71513;SDS011;59335;46.652;21.272;2023-12-20T06:40:25;18.27;;;12.43;;
71513;SDS011;59335;46.652;21.272;2023-12-20T06:43:28;18.38;;;13.10;;
71513;SDS011;59335;46.652;21.272;2023-12-20T06:46:50;18.17;;;13.13;;
71513;SDS011;59335;46.652;21.272;2023-12-20T06:49:53;16.95;;;12.48;;
71513;SDS011;59335;46.652;21.272;2023-12-20T06:52:56;19.42;;;13.48;;
71513;SDS011;59335;46.652;21.272;2023-12-20T06:55:59;18.95;;;13.27;;
71513;SDS011;59335;46.652;21.272;2023-12-20T06:59:03;20.00;;;13.45;;
71513;SDS011;59335;46.652;21.272;2023-12-20T07:02:11;20.00;;;12.43;;
71513;SDS011;59335;46.652;21.272;2023-12-20T07:05:17;19.00;;;12.88;;
71513;SDS011;59335;46.652;21.272;2023-12-20T07:08:22;18.80;;;13.10;;
71513;SDS011;59335;46.652;21.272;2023-12-20T07:11:28;18.15;;;12.57;;
71513;SDS011;59335;46.652;21.272;2023-12-20T07:14:33;19.85;;;13.35;;
71513;SDS011;59335;46.652;21.272;2023-12-20T07:17:36;18.90;;;12.33;;
71513;SDS011;59335;46.652;21.272;2023-12-20T07:20:40;18.95;;;12.07;;
71513;SDS011;59335;46.652;21.272;2023-12-20T07:23:42;20.55;;;13.07;;
71513;SDS011;59335;46.652;21.272;2023-12-20T07:26:46;18.33;;;12.43;;
71513;SDS011;59335;46.652;21.272;2023-12-20T07:29:51;19.27;;;12.80;;
71513;SDS011;59335;46.652;21.272;2023-12-20T07:32:54;17.27;;;12.30;;
71513;SDS011;59335;46.652;21.272;2023-12-20T07:35:56;17.95;;;12.80;;
71513;SDS011;59335;46.652;21.272;2023-12-20T07:39:00;20.33;;;13.23;;
71513;SDS011;59335;46.652;21.272;2023-12-20T07:42:05;17.35;;;11.88;;
71513;SDS011;59335;46.652;21.272;2023-12-20T07:45:09;17.85;;;12.95;;
71513;SDS011;59335;46.652;21.272;2023-12-20T07:48:14;20.70;;;13.07;;
71513;SDS011;59335;46.652;21.272;2023-12-20T07:51:19;19.85;;;12.85;;
71513;SDS011;59335;46.652;21.272;2023-12-20T07:54:23;21.38;;;12.70;;
71513;SDS011;59335;46.652;21.272;2023-12-20T07:57:28;19.17;;;12.77;;
71513;SDS011;59335;46.652;21.272;2023-12-20T08:00:33;19.80;;;13.35;;
71513;SDS011;59335;46.652;21.272;2023-12-20T08:03:39;16.80;;;12.30;;
71513;SDS011;59335;46.652;21.272;2023-12-20T08:06:42;23.13;;;13.00;;
71513;SDS011;59335;46.652;21.272;2023-12-20T08:09:46;18.42;;;12.63;;
71513;SDS011;59335;46.652;21.272;2023-12-20T08:12:51;17.70;;;12.65;;
71513;SDS011;59335;46.652;21.272;2023-12-20T08:15:55;21.05;;;12.75;;
71513;SDS011;59335;46.652;21.272;2023-12-20T08:18:58;17.60;;;12.37;;
71513;SDS011;59335;46.652;21.272;2023-12-20T08:22:02;20.05;;;12.88;;
71513;SDS011;59335;46.652;21.272;2023-12-20T08:25:11;20.48;;;12.98;;
71513;SDS011;59335;46.652;21.272;2023-12-20T08:28:15;17.20;;;12.13;;
71513;SDS011;59335;46.652;21.272;2023-12-20T08:31:18;21.25;;;12.77;;
71513;SDS011;59335;46.652;21.272;2023-12-20T08:34:24;20.73;;;13.07;;
71513;SDS011;59335;46.652;21.272;2023-12-20T08:37:36;19.40;;;12.25;;
71513;SDS011;59335;46.652;21.272;2023-12-20T08:40:40;19.38;;;12.40;;
71513;SDS011;59335;46.652;21.272;2023-12-20T08:43:44;21.20;;;12.30;;
71513;SDS011;59335;46.652;21.272;2023-12-20T08:46:47;18.10;;;11.70;;
71513;SDS011;59335;46.652;21.272;2023-12-20T08:49:52;18.83;;;12.40;;
71513;SDS011;59335;46.652;21.272;2023-12-20T08:52:59;23.48;;;11.60;;
71513;SDS011;59335;46.652;21.272;2023-12-20T08:56:02;21.80;;;12.30;;
71513;SDS011;59335;46.652;21.272;2023-12-20T08:59:06;20.70;;;12.02;;
71513;SDS011;59335;46.652;21.272;2023-12-20T09:02:18;19.90;;;12.35;;
71513;SDS011;59335;46.652;21.272;2023-12-20T09:05:21;19.77;;;12.03;;
71513;SDS011;59335;46.652;21.272;2023-12-20T09:08:25;21.45;;;12.15;;
71513;SDS011;59335;46.652;21.272;2023-12-20T09:11:28;18.17;;;12.40;;
71513;SDS011;59335;46.652;21.272;2023-12-20T09:14:31;19.13;;;12.00;;
71513;SDS011;59335;46.652;21.272;2023-12-20T09:17:35;19.55;;;12.52;;
71513;SDS011;59335;46.652;21.272;2023-12-20T09:20:38;19.37;;;11.20;;
71513;SDS011;59335;46.652;21.272;2023-12-20T09:23:46;18.95;;;11.90;;
71513;SDS011;59335;46.652;21.272;2023-12-20T09:26:49;19.27;;;12.90;;
71513;SDS011;59335;46.652;21.272;2023-12-20T09:29:52;20.90;;;12.23;;
71513;SDS011;59335;46.652;21.272;2023-12-20T09:32:56;17.38;;;11.77;;
71513;SDS011;59335;46.652;21.272;2023-12-20T09:35:59;25.20;;;12.57;;
71513;SDS011;59335;46.652;21.272;2023-12-20T09:39:04;18.17;;;12.02;;
71513;SDS011;59335;46.652;21.272;2023-12-20T09:42:11;18.70;;;12.90;;
71513;SDS011;59335;46.652;21.272;2023-12-20T09:45:25;19.73;;;11.98;;
71513;SDS011;59335;46.652;21.272;2023-12-20T09:48:29;19.67;;;12.30;;
71513;SDS011;59335;46.652;21.272;2023-12-20T09:51:33;20.57;;;12.10;;
71513;SDS011;59335;46.652;21.272;2023-12-20T09:54:37;19.08;;;11.38;;
71513;SDS011;59335;46.652;21.272;2023-12-20T09:57:41;19.67;;;12.65;;
71513;SDS011;59335;46.652;21.272;2023-12-20T10:00:45;19.08;;;11.55;;
71513;SDS011;59335;46.652;21.272;2023-12-20T10:03:48;19.83;;;11.88;;
71513;SDS011;59335;46.652;21.272;2023-12-20T10:06:54;18.77;;;11.97;;
71513;SDS011;59335;46.652;21.272;2023-12-20T10:09:59;19.20;;;11.95;;
71513;SDS011;59335;46.652;21.272;2023-12-20T10:13:04;23.20;;;12.57;;
71513;SDS011;59335;46.652;21.272;2023-12-20T10:16:09;19.42;;;12.20;;
71513;SDS011;59335;46.652;21.272;2023-12-20T10:19:16;21.77;;;12.77;;
71513;SDS011;59335;46.652;21.272;2023-12-20T10:22:23;18.83;;;12.17;;
71513;SDS011;59335;46.652;21.272;2023-12-20T10:25:26;20.45;;;12.40;;
71513;SDS011;59335;46.652;21.272;2023-12-20T10:28:33;20.33;;;11.95;;
71513;SDS011;59335;46.652;21.272;2023-12-20T10:31:37;17.98;;;11.63;;
71513;SDS011;59335;46.652;21.272;2023-12-20T10:34:45;23.25;;;12.57;;
71513;SDS011;59335;46.652;21.272;2023-12-20T10:37:48;19.03;;;12.33;;
71513;SDS011;59335;46.652;21.272;2023-12-20T10:40:54;22.10;;;12.15;;
71513;SDS011;59335;46.652;21.272;2023-12-20T10:44:02;20.33;;;12.32;;
71513;SDS011;59335;46.652;21.272;2023-12-20T10:47:13;17.67;;;11.55;;
71513;SDS011;59335;46.652;21.272;2023-12-20T10:50:17;18.33;;;12.88;;
71513;SDS011;59335;46.652;21.272;2023-12-20T10:53:26;17.60;;;12.07;;
71513;SDS011;59335;46.652;21.272;2023-12-20T10:56:31;17.73;;;12.43;;
71513;SDS011;59335;46.652;21.272;2023-12-20T10:59:40;17.92;;;12.40;;
71513;SDS011;59335;46.652;21.272;2023-12-20T11:02:51;19.08;;;12.63;;
71513;SDS011;59335;46.652;21.272;2023-12-20T11:09:24;19.47;;;12.70;;
71513;SDS011;59335;46.652;21.272;2023-12-20T11:12:39;23.00;;;12.00;;
71513;SDS011;59335;46.652;21.272;2023-12-20T11:15:48;18.15;;;12.60;;
71513;SDS011;59335;46.652;21.272;2023-12-20T11:18:52;19.70;;;12.55;;
71513;SDS011;59335;46.652;21.272;2023-12-20T11:21:56;19.52;;;12.63;;
71513;SDS011;59335;46.652;21.272;2023-12-20T11:25:07;19.83;;;12.30;;
71513;SDS011;59335;46.652;21.272;2023-12-20T11:28:12;19.75;;;11.68;;
71513;SDS011;59335;46.652;21.272;2023-12-20T11:31:15;20.15;;;12.45;;
71513;SDS011;59335;46.652;21.272;2023-12-20T11:34:18;20.85;;;12.77;;
71513;SDS011;59335;46.652;21.272;2023-12-20T11:37:21;18.42;;;12.68;;
71513;SDS011;59335;46.652;21.272;2023-12-20T11:40:24;20.63;;;12.80;;
71513;SDS011;59335;46.652;21.272;2023-12-20T11:43:32;20.83;;;12.32;;
71513;SDS011;59335;46.652;21.272;2023-12-20T11:46:39;17.83;;;12.35;;
71513;SDS011;59335;46.652;21.272;2023-12-20T11:49:43;23.10;;;14.38;;
71513;SDS011;59335;46.652;21.272;2023-12-20T11:52:47;22.70;;;13.13;;
71513;SDS011;59335;46.652;21.272;2023-12-20T11:55:50;23.13;;;12.93;;
71513;SDS011;59335;46.652;21.272;2023-12-20T11:58:53;19.50;;;12.88;;
71513;SDS011;59335;46.652;21.272;2023-12-20T12:02:03;22.35;;;12.30;;
71513;SDS011;59335;46.652;21.272;2023-12-20T12:05:06;26.83;;;12.75;;
71513;SDS011;59335;46.652;21.272;2023-12-20T12:08:10;21.48;;;12.43;;
71513;SDS011;59335;46.652;21.272;2023-12-20T12:11:16;23.40;;;12.23;;
71513;SDS011;59335;46.652;21.272;2023-12-20T12:14:20;22.40;;;14.15;;
71513;SDS011;59335;46.652;21.272;2023-12-20T12:17:23;24.13;;;13.07;;
71513;SDS011;59335;46.652;21.272;2023-12-20T12:20:27;21.10;;;12.55;;
71513;SDS011;59335;46.652;21.272;2023-12-20T12:23:30;21.77;;;12.57;;
71513;SDS011;59335;46.652;21.272;2023-12-20T12:26:34;22.13;;;12.87;;
71513;SDS011;59335;46.652;21.272;2023-12-20T12:29:39;23.08;;;13.23;;
71513;SDS011;59335;46.652;21.272;2023-12-20T12:32:43;20.83;;;12.60;;
71513;SDS011;59335;46.652;21.272;2023-12-20T12:35:48;21.60;;;12.70;;
71513;SDS011;59335;46.652;21.272;2023-12-20T12:38:51;22.27;;;12.45;;
71513;SDS011;59335;46.652;21.272;2023-12-20T12:41:55;19.63;;;12.33;;
71513;SDS011;59335;46.652;21.272;2023-12-20T12:44:59;20.02;;;12.45;;
71513;SDS011;59335;46.652;21.272;2023-12-20T12:48:02;22.65;;;12.85;;
71513;SDS011;59335;46.652;21.272;2023-12-20T12:51:05;22.98;;;12.40;;
71513;SDS011;59335;46.652;21.272;2023-12-20T12:54:09;20.63;;;12.68;;
71513;SDS011;59335;46.652;21.272;2023-12-20T12:57:13;23.33;;;12.90;;
71513;SDS011;59335;46.652;21.272;2023-12-20T13:00:17;21.42;;;13.27;;
71513;SDS011;59335;46.652;21.272;2023-12-20T13:03:20;23.15;;;13.25;;
71513;SDS011;59335;46.652;21.272;2023-12-20T13:06:24;23.10;;;13.73;;
71513;SDS011;59335;46.652;21.272;2023-12-20T13:09:28;18.75;;;13.13;;
71513;SDS011;59335;46.652;21.272;2023-12-20T13:12:43;25.80;;;12.97;;
71513;SDS011;59335;46.652;21.272;2023-12-20T13:15:48;21.85;;;13.38;;
71513;SDS011;59335;46.652;21.272;2023-12-20T13:18:55;22.65;;;13.73;;
71513;SDS011;59335;46.652;21.272;2023-12-20T13:21:59;21.50;;;13.60;;
71513;SDS011;59335;46.652;21.272;2023-12-20T13:25:02;22.67;;;14.48;;
71513;SDS011;59335;46.652;21.272;2023-12-20T13:28:06;21.87;;;14.17;;
71513;SDS011;59335;46.652;21.272;2023-12-20T13:31:10;21.67;;;13.15;;
71513;SDS011;59335;46.652;21.272;2023-12-20T13:34:13;20.38;;;13.57;;
71513;SDS011;59335;46.652;21.272;2023-12-20T13:37:16;21.67;;;13.90;;
71513;SDS011;59335;46.652;21.272;2023-12-20T13:40:19;22.38;;;14.27;;
71513;SDS011;59335;46.652;21.272;2023-12-20T13:43:22;24.70;;;13.57;;
71513;SDS011;59335;46.652;21.272;2023-12-20T13:46:27;23.83;;;13.52;;
71513;SDS011;59335;46.652;21.272;2023-12-20T13:49:38;23.88;;;14.68;;
71513;SDS011;59335;46.652;21.272;2023-12-20T13:52:41;21.33;;;13.50;;
71513;SDS011;59335;46.652;21.272;2023-12-20T13:55:44;24.38;;;14.13;;
71513;SDS011;59335;46.652;21.272;2023-12-20T13:58:50;21.07;;;13.73;;
71513;SDS011;59335;46.652;21.272;2023-12-20T14:01:53;25.98;;;14.20;;
71513;SDS011;59335;46.652;21.272;2023-12-20T14:04:56;23.30;;;14.25;;
71513;SDS011;59335;46.652;21.272;2023-12-20T14:08:06;27.25;;;19.08;;
71513;SDS011;59335;46.652;21.272;2023-12-20T14:11:10;26.08;;;14.90;;
71513;SDS011;59335;46.652;21.272;2023-12-20T14:14:14;28.87;;;19.37;;
71513;SDS011;59335;46.652;21.272;2023-12-20T14:17:17;36.85;;;24.27;;
71513;SDS011;59335;46.652;21.272;2023-12-20T14:20:20;27.70;;;18.27;;
71513;SDS011;59335;46.652;21.272;2023-12-20T14:23:23;26.98;;;17.65;;
71513;SDS011;59335;46.652;21.272;2023-12-20T14:26:26;27.35;;;18.08;;
71513;SDS011;59335;46.652;21.272;2023-12-20T14:29:30;29.00;;;18.30;;
71513;SDS011;59335;46.652;21.272;2023-12-20T14:32:34;25.23;;;16.05;;
71513;SDS011;59335;46.652;21.272;2023-12-20T14:35:40;24.00;;;15.18;;
71513;SDS011;59335;46.652;21.272;2023-12-20T14:38:47;26.15;;;15.60;;
71513;SDS011;59335;46.652;21.272;2023-12-20T14:41:52;23.15;;;15.98;;
71513;SDS011;59335;46.652;21.272;2023-12-20T14:44:59;24.37;;;15.47;;
71513;SDS011;59335;46.652;21.272;2023-12-20T14:48:02;24.58;;;16.15;;
71513;SDS011;59335;46.652;21.272;2023-12-20T14:51:05;29.65;;;17.60;;
71513;SDS011;59335;46.652;21.272;2023-12-20T14:54:09;24.80;;;16.35;;
71513;SDS011;59335;46.652;21.272;2023-12-20T14:57:12;26.92;;;17.05;;
71513;SDS011;59335;46.652;21.272;2023-12-20T15:00:15;25.23;;;16.27;;
71513;SDS011;59335;46.652;21.272;2023-12-20T15:03:19;27.13;;;16.52;;
71513;SDS011;59335;46.652;21.272;2023-12-20T15:06:22;26.58;;;16.65;;
71513;SDS011;59335;46.652;21.272;2023-12-20T15:09:25;26.92;;;16.45;;
71513;SDS011;59335;46.652;21.272;2023-12-20T15:12:28;27.25;;;16.88;;
71513;SDS011;59335;46.652;21.272;2023-12-20T15:15:31;21.97;;;15.70;;
71513;SDS011;59335;46.652;21.272;2023-12-20T15:18:36;27.45;;;16.38;;
71513;SDS011;59335;46.652;21.272;2023-12-20T15:21:39;27.13;;;16.08;;
71513;SDS011;59335;46.652;21.272;2023-12-20T15:24:49;28.33;;;16.92;;
71513;SDS011;59335;46.652;21.272;2023-12-20T15:27:54;35.72;;;16.67;;
71513;SDS011;59335;46.652;21.272;2023-12-20T15:30:57;31.93;;;17.13;;
71513;SDS011;59335;46.652;21.272;2023-12-20T15:34:01;32.10;;;16.23;;
71513;SDS011;59335;46.652;21.272;2023-12-20T15:37:04;33.25;;;17.27;;
71513;SDS011;59335;46.652;21.272;2023-12-20T15:40:07;32.72;;;16.52;;
71513;SDS011;59335;46.652;21.272;2023-12-20T15:43:12;34.38;;;17.67;;
71513;SDS011;59335;46.652;21.272;2023-12-20T15:46:15;32.77;;;16.97;;
71513;SDS011;59335;46.652;21.272;2023-12-20T15:49:18;35.90;;;17.10;;
71513;SDS011;59335;46.652;21.272;2023-12-20T15:52:22;37.92;;;17.30;;
71513;SDS011;59335;46.652;21.272;2023-12-20T15:55:25;37.55;;;17.48;;
71513;SDS011;59335;46.652;21.272;2023-12-20T15:58:29;34.25;;;16.75;;
71513;SDS011;59335;46.652;21.272;2023-12-20T16:01:33;31.17;;;15.73;;
71513;SDS011;59335;46.652;21.272;2023-12-20T16:04:37;30.52;;;15.60;;
71513;SDS011;59335;46.652;21.272;2023-12-20T16:07:40;29.48;;;16.20;;
71513;SDS011;59335;46.652;21.272;2023-12-20T16:10:43;33.90;;;16.60;;
71513;SDS011;59335;46.652;21.272;2023-12-20T16:13:46;34.00;;;16.27;;
71513;SDS011;59335;46.652;21.272;2023-12-20T16:16:49;29.10;;;15.53;;
71513;SDS011;59335;46.652;21.272;2023-12-20T16:19:52;24.92;;;15.68;;
71513;SDS011;59335;46.652;21.272;2023-12-20T16:22:54;29.60;;;16.05;;
71513;SDS011;59335;46.652;21.272;2023-12-20T16:25:57;27.02;;;15.85;;
71513;SDS011;59335;46.652;21.272;2023-12-20T16:29:00;29.83;;;16.88;;
71513;SDS011;59335;46.652;21.272;2023-12-20T16:32:03;34.50;;;16.43;;
71513;SDS011;59335;46.652;21.272;2023-12-20T16:35:06;26.83;;;15.00;;
71513;SDS011;59335;46.652;21.272;2023-12-20T16:38:09;26.40;;;15.68;;
71513;SDS011;59335;46.652;21.272;2023-12-20T16:41:12;29.02;;;14.95;;
71513;SDS011;59335;46.652;21.272;2023-12-20T16:44:15;27.88;;;15.73;;
71513;SDS011;59335;46.652;21.272;2023-12-20T16:47:18;29.70;;;14.63;;
71513;SDS011;59335;46.652;21.272;2023-12-20T16:50:21;28.05;;;15.60;;
71513;SDS011;59335;46.652;21.272;2023-12-20T16:53:24;24.08;;;15.15;;
71513;SDS011;59335;46.652;21.272;2023-12-20T16:56:27;27.70;;;15.10;;
71513;SDS011;59335;46.652;21.272;2023-12-20T16:59:30;24.60;;;14.77;;
71513;SDS011;59335;46.652;21.272;2023-12-20T17:02:33;27.03;;;14.80;;
71513;SDS011;59335;46.652;21.272;2023-12-20T17:05:36;28.55;;;15.00;;
71513;SDS011;59335;46.652;21.272;2023-12-20T17:08:39;25.83;;;14.82;;
71513;SDS011;59335;46.652;21.272;2023-12-20T17:11:42;25.10;;;14.93;;
71513;SDS011;59335;46.652;21.272;2023-12-20T17:14:46;25.15;;;15.35;;
71513;SDS011;59335;46.652;21.272;2023-12-20T17:17:49;22.67;;;14.40;;
71513;SDS011;59335;46.652;21.272;2023-12-20T17:20:53;23.10;;;14.93;;
71513;SDS011;59335;46.652;21.272;2023-12-20T17:23:56;26.92;;;15.15;;
71513;SDS011;59335;46.652;21.272;2023-12-20T17:26:58;25.33;;;14.68;;
71513;SDS011;59335;46.652;21.272;2023-12-20T17:30:01;25.15;;;14.80;;
71513;SDS011;59335;46.652;21.272;2023-12-20T17:33:04;24.60;;;14.90;;
71513;SDS011;59335;46.652;21.272;2023-12-20T17:36:08;23.23;;;14.13;;
71513;SDS011;59335;46.652;21.272;2023-12-20T17:39:11;26.85;;;15.18;;
71513;SDS011;59335;46.652;21.272;2023-12-20T17:42:13;22.17;;;14.02;;
71513;SDS011;59335;46.652;21.272;2023-12-20T17:45:16;24.25;;;14.32;;